sensor_id;sensor_type;location;lat;lon;timestamp;P1;P2;P0
54869;PMS5003;40756;-37.950;145.008;2023-05-23T00:00:07;10;7;
54869;PMS5003;40756;-37.950;145.008;2023-05-23T00:02:37;13;11;
54869;PMS5003;40756;-37.950;145.008;2023-05-23T00:05:07;19;18;
54869;PMS5003;40756;-37.950;145.008;2023-05-23T00:07:37;19;18;
54869;PMS5003;40756;-37.950;145.008;2023-05-23T00:10:07;10;7;
54869;PMS5003;40756;-37.950;145.008;2023-05-23T00:12:37;6;6;
54869;PMS5003;40756;-37.950;145.008;2023-05-23T00:15:09;7;6;
54869;PMS5003;40756;-37.950;145.008;2023-05-23T00:17:38;7;7;
54869;PMS5003;40756;-37.950;145.008;2023-05-23T00:20:08;6;5;
54869;PMS5003;40756;-37.950;145.008;2023-05-23T00:22:39;6;5;
54869;PMS5003;40756;-37.950;145.008;2023-05-23T00:25:09;8;6;
54869;PMS5003;40756;-37.950;145.008;2023-05-23T00:27:38;6;6;
54869;PMS5003;40756;-37.950;145.008;2023-05-23T00:30:08;7;7;
54869;PMS5003;40756;-37.950;145.008;2023-05-23T00:32:38;7;7;
54869;PMS5003;40756;-37.950;145.008;2023-05-23T00:35:08;6;6;
54869;PMS5003;40756;-37.950;145.008;2023-05-23T00:37:37;7;6;
54869;PMS5003;40756;-37.950;145.008;2023-05-23T00:40:07;6;6;
54869;PMS5003;40756;-37.950;145.008;2023-05-23T00:42:37;8;8;
54869;PMS5003;40756;-37.950;145.008;2023-05-23T00:45:07;4;4;
54869;PMS5003;40756;-37.950;145.008;2023-05-23T00:47:37;6;4;
54869;PMS5003;40756;-37.950;145.008;2023-05-23T00:50:08;6;6;
54869;PMS5003;40756;-37.950;145.008;2023-05-23T00:52:40;6;5;
54869;PMS5003;40756;-37.950;145.008;2023-05-23T00:55:11;6;4;
54869;PMS5003;40756;-37.950;145.008;2023-05-23T00:57:40;6;5;
54869;PMS5003;40756;-37.950;145.008;2023-05-23T01:00:10;6;6;
54869;PMS5003;40756;-37.950;145.008;2023-05-23T01:02:42;5;5;
54869;PMS5003;40756;-37.950;145.008;2023-05-23T01:05:13;5;5;
54869;PMS5003;40756;-37.950;145.008;2023-05-23T01:07:44;8;6;
54869;PMS5003;40756;-37.950;145.008;2023-05-23T01:10:14;4;4;
54869;PMS5003;40756;-37.950;145.008;2023-05-23T01:12:50;8;7;
54869;PMS5003;40756;-37.950;145.008;2023-05-23T01:15:28;7;6;
54869;PMS5003;40756;-37.950;145.008;2023-05-23T01:18:06;5;4;
54869;PMS5003;40756;-37.950;145.008;2023-05-23T01:20:42;5;5;
54869;PMS5003;40756;-37.950;145.008;2023-05-23T01:23:54;6;6;
54869;PMS5003;40756;-37.950;145.008;2023-05-23T01:26:55;9;6;
54869;PMS5003;40756;-37.950;145.008;2023-05-23T01:29:36;9;8;
54869;PMS5003;40756;-37.950;145.008;2023-05-23T01:32:10;7;7;
54869;PMS5003;40756;-37.950;145.008;2023-05-23T01:34:42;7;7;
54869;PMS5003;40756;-37.950;145.008;2023-05-23T01:37:12;10;8;
54869;PMS5003;40756;-37.950;145.008;2023-05-23T01:39:42;7;7;
54869;PMS5003;40756;-37.950;145.008;2023-05-23T01:42:12;8;7;
54869;PMS5003;40756;-37.950;145.008;2023-05-23T01:44:42;9;8;
54869;PMS5003;40756;-37.950;145.008;2023-05-23T01:47:13;45;36;
54869;PMS5003;40756;-37.950;145.008;2023-05-23T01:49:44;10;8;
54869;PMS5003;40756;-37.950;145.008;2023-05-23T01:52:13;8;8;
54869;PMS5003;40756;-37.950;145.008;2023-05-23T01:54:43;8;6;
54869;PMS5003;40756;-37.950;145.008;2023-05-23T01:57:13;6;6;
54869;PMS5003;40756;-37.950;145.008;2023-05-23T01:59:44;6;6;
54869;PMS5003;40756;-37.950;145.008;2023-05-23T02:02:14;6;6;
54869;PMS5003;40756;-37.950;145.008;2023-05-23T02:04:44;58;55;
54869;PMS5003;40756;-37.950;145.008;2023-05-23T02:07:15;8;8;
54869;PMS5003;40756;-37.950;145.008;2023-05-23T02:09:45;6;6;
54869;PMS5003;40756;-37.950;145.008;2023-05-23T02:12:14;7;6;
54869;PMS5003;40756;-37.950;145.008;2023-05-23T02:14:45;6;4;
54869;PMS5003;40756;-37.950;145.008;2023-05-23T02:17:15;6;5;
54869;PMS5003;40756;-37.950;145.008;2023-05-23T02:19:44;5;4;
54869;PMS5003;40756;-37.950;145.008;2023-05-23T02:22:13;4;4;
54869;PMS5003;40756;-37.950;145.008;2023-05-23T02:24:43;5;5;
54869;PMS5003;40756;-37.950;145.008;2023-05-23T02:27:13;5;3;
54869;PMS5003;40756;-37.950;145.008;2023-05-23T02:29:42;4;3;
54869;PMS5003;40756;-37.950;145.008;2023-05-23T02:32:12;3;3;
54869;PMS5003;40756;-37.950;145.008;2023-05-23T02:34:41;5;5;
54869;PMS5003;40756;-37.950;145.008;2023-05-23T02:37:12;6;6;
54869;PMS5003;40756;-37.950;145.008;2023-05-23T02:39:42;6;5;
54869;PMS5003;40756;-37.950;145.008;2023-05-23T02:42:11;5;5;
54869;PMS5003;40756;-37.950;145.008;2023-05-23T02:44:40;5;4;
54869;PMS5003;40756;-37.950;145.008;2023-05-23T02:47:10;4;4;
54869;PMS5003;40756;-37.950;145.008;2023-05-23T02:49:40;4;3;
54869;PMS5003;40756;-37.950;145.008;2023-05-23T02:52:09;5;4;
54869;PMS5003;40756;-37.950;145.008;2023-05-23T02:54:39;7;4;
54869;PMS5003;40756;-37.950;145.008;2023-05-23T02:57:08;4;4;
54869;PMS5003;40756;-37.950;145.008;2023-05-23T02:59:38;3;3;
54869;PMS5003;40756;-37.950;145.008;2023-05-23T03:02:07;3;2;
54869;PMS5003;40756;-37.950;145.008;2023-05-23T03:04:37;4;4;
54869;PMS5003;40756;-37.950;145.008;2023-05-23T03:07:07;4;3;
54869;PMS5003;40756;-37.950;145.008;2023-05-23T03:09:37;2;2;
54869;PMS5003;40756;-37.950;145.008;2023-05-23T03:12:06;4;3;
54869;PMS5003;40756;-37.950;145.008;2023-05-23T03:14:36;6;5;
54869;PMS5003;40756;-37.950;145.008;2023-05-23T03:17:06;4;4;
54869;PMS5003;40756;-37.950;145.008;2023-05-23T03:19:37;4;4;
54869;PMS5003;40756;-37.950;145.008;2023-05-23T03:22:06;3;2;
54869;PMS5003;40756;-37.950;145.008;2023-05-23T03:24:36;6;6;
54869;PMS5003;40756;-37.950;145.008;2023-05-23T03:27:05;6;5;
54869;PMS5003;40756;-37.950;145.008;2023-05-23T03:29:35;4;3;
54869;PMS5003;40756;-37.950;145.008;2023-05-23T03:32:05;9;5;
54869;PMS5003;40756;-37.950;145.008;2023-05-23T03:34:34;4;4;
54869;PMS5003;40756;-37.950;145.008;2023-05-23T03:37:04;7;5;
54869;PMS5003;40756;-37.950;145.008;2023-05-23T03:39:33;4;4;
54869;PMS5003;40756;-37.950;145.008;2023-05-23T03:42:03;6;4;
54869;PMS5003;40756;-37.950;145.008;2023-05-23T03:44:33;7;5;
54869;PMS5003;40756;-37.950;145.008;2023-05-23T03:47:03;6;5;
54869;PMS5003;40756;-37.950;145.008;2023-05-23T03:49:33;4;3;
54869;PMS5003;40756;-37.950;145.008;2023-05-23T03:52:02;3;3;
54869;PMS5003;40756;-37.950;145.008;2023-05-23T03:54:32;5;4;
54869;PMS5003;40756;-37.950;145.008;2023-05-23T03:57:01;20;19;
54869;PMS5003;40756;-37.950;145.008;2023-05-23T03:59:31;10;10;
54869;PMS5003;40756;-37.950;145.008;2023-05-23T04:02:01;7;7;
54869;PMS5003;40756;-37.950;145.008;2023-05-23T04:04:31;6;5;
54869;PMS5003;40756;-37.950;145.008;2023-05-23T04:07:00;4;4;
54869;PMS5003;40756;-37.950;145.008;2023-05-23T04:09:30;5;5;
54869;PMS5003;40756;-37.950;145.008;2023-05-23T04:11:59;4;3;
54869;PMS5003;40756;-37.950;145.008;2023-05-23T04:14:29;4;3;
54869;PMS5003;40756;-37.950;145.008;2023-05-23T04:16:58;6;5;
54869;PMS5003;40756;-37.950;145.008;2023-05-23T04:19:28;2;1;
54869;PMS5003;40756;-37.950;145.008;2023-05-23T04:21:59;4;3;
54869;PMS5003;40756;-37.950;145.008;2023-05-23T04:24:28;3;3;
54869;PMS5003;40756;-37.950;145.008;2023-05-23T04:26:58;3;3;
54869;PMS5003;40756;-37.950;145.008;2023-05-23T04:29:27;3;2;
54869;PMS5003;40756;-37.950;145.008;2023-05-23T04:31:57;2;2;
54869;PMS5003;40756;-37.950;145.008;2023-05-23T04:34:26;2;2;
54869;PMS5003;40756;-37.950;145.008;2023-05-23T04:36:56;2;1;
54869;PMS5003;40756;-37.950;145.008;2023-05-23T04:39:26;2;2;
54869;PMS5003;40756;-37.950;145.008;2023-05-23T04:41:55;1;1;
54869;PMS5003;40756;-37.950;145.008;2023-05-23T04:44:25;4;4;
54869;PMS5003;40756;-37.950;145.008;2023-05-23T04:46:55;3;3;
54869;PMS5003;40756;-37.950;145.008;2023-05-23T04:49:24;3;3;
54869;PMS5003;40756;-37.950;145.008;2023-05-23T04:51:54;1;1;
54869;PMS5003;40756;-37.950;145.008;2023-05-23T04:54:23;2;1;
54869;PMS5003;40756;-37.950;145.008;2023-05-23T04:56:53;2;2;
54869;PMS5003;40756;-37.950;145.008;2023-05-23T04:59:23;3;3;
54869;PMS5003;40756;-37.950;145.008;2023-05-23T05:01:52;4;3;
54869;PMS5003;40756;-37.950;145.008;2023-05-23T05:04:22;1;1;
54869;PMS5003;40756;-37.950;145.008;2023-05-23T05:06:51;5;4;
54869;PMS5003;40756;-37.950;145.008;2023-05-23T05:09:21;2;2;
54869;PMS5003;40756;-37.950;145.008;2023-05-23T05:11:51;2;1;
54869;PMS5003;40756;-37.950;145.008;2023-05-23T05:14:20;3;3;
54869;PMS5003;40756;-37.950;145.008;2023-05-23T05:16:52;1;1;
54869;PMS5003;40756;-37.950;145.008;2023-05-23T05:19:21;2;2;
54869;PMS5003;40756;-37.950;145.008;2023-05-23T05:21:51;1;1;
54869;PMS5003;40756;-37.950;145.008;2023-05-23T05:24:21;5;4;
54869;PMS5003;40756;-37.950;145.008;2023-05-23T05:26:51;2;1;
54869;PMS5003;40756;-37.950;145.008;2023-05-23T05:29:21;4;4;
54869;PMS5003;40756;-37.950;145.008;2023-05-23T05:31:50;3;2;
54869;PMS5003;40756;-37.950;145.008;2023-05-23T05:34:20;1;1;
54869;PMS5003;40756;-37.950;145.008;2023-05-23T05:36:50;4;3;
54869;PMS5003;40756;-37.950;145.008;2023-05-23T05:39:19;4;3;
54869;PMS5003;40756;-37.950;145.008;2023-05-23T05:41:51;4;3;
54869;PMS5003;40756;-37.950;145.008;2023-05-23T05:44:20;4;3;
54869;PMS5003;40756;-37.950;145.008;2023-05-23T05:46:49;2;2;
54869;PMS5003;40756;-37.950;145.008;2023-05-23T05:49:19;5;5;
54869;PMS5003;40756;-37.950;145.008;2023-05-23T05:51:49;3;2;
54869;PMS5003;40756;-37.950;145.008;2023-05-23T05:54:19;3;3;
54869;PMS5003;40756;-37.950;145.008;2023-05-23T05:56:49;2;2;
54869;PMS5003;40756;-37.950;145.008;2023-05-23T05:59:18;3;2;
54869;PMS5003;40756;-37.950;145.008;2023-05-23T06:01:48;4;3;
54869;PMS5003;40756;-37.950;145.008;2023-05-23T06:04:18;3;2;
54869;PMS5003;40756;-37.950;145.008;2023-05-23T06:06:47;2;2;
54869;PMS5003;40756;-37.950;145.008;2023-05-23T06:09:17;3;3;
54869;PMS5003;40756;-37.950;145.008;2023-05-23T06:11:47;2;1;
54869;PMS5003;40756;-37.950;145.008;2023-05-23T06:14:16;4;4;
54869;PMS5003;40756;-37.950;145.008;2023-05-23T06:16:46;3;2;
54869;PMS5003;40756;-37.950;145.008;2023-05-23T06:19:15;5;4;
54869;PMS5003;40756;-37.950;145.008;2023-05-23T06:21:45;6;4;
54869;PMS5003;40756;-37.950;145.008;2023-05-23T06:24:15;5;4;
54869;PMS5003;40756;-37.950;145.008;2023-05-23T06:26:46;5;5;
54869;PMS5003;40756;-37.950;145.008;2023-05-23T06:29:16;3;3;
54869;PMS5003;40756;-37.950;145.008;2023-05-23T06:31:46;4;3;
54869;PMS5003;40756;-37.950;145.008;2023-05-23T06:34:15;6;5;
54869;PMS5003;40756;-37.950;145.008;2023-05-23T06:36:45;4;3;
54869;PMS5003;40756;-37.950;145.008;2023-05-23T06:39:15;4;4;
54869;PMS5003;40756;-37.950;145.008;2023-05-23T06:41:45;5;4;
54869;PMS5003;40756;-37.950;145.008;2023-05-23T06:44:14;5;4;
54869;PMS5003;40756;-37.950;145.008;2023-05-23T06:46:44;5;4;
54869;PMS5003;40756;-37.950;145.008;2023-05-23T06:49:15;7;6;
54869;PMS5003;40756;-37.950;145.008;2023-05-23T06:51:45;8;7;
54869;PMS5003;40756;-37.950;145.008;2023-05-23T06:54:14;6;6;
54869;PMS5003;40756;-37.950;145.008;2023-05-23T06:56:44;5;4;
54869;PMS5003;40756;-37.950;145.008;2023-05-23T06:59:14;3;3;
54869;PMS5003;40756;-37.950;145.008;2023-05-23T07:01:43;6;5;
54869;PMS5003;40756;-37.950;145.008;2023-05-23T07:04:13;7;6;
54869;PMS5003;40756;-37.950;145.008;2023-05-23T07:06:43;5;5;
54869;PMS5003;40756;-37.950;145.008;2023-05-23T07:09:13;6;5;
54869;PMS5003;40756;-37.950;145.008;2023-05-23T07:11:43;6;5;
54869;PMS5003;40756;-37.950;145.008;2023-05-23T07:14:13;6;6;
54869;PMS5003;40756;-37.950;145.008;2023-05-23T07:16:43;4;4;
54869;PMS5003;40756;-37.950;145.008;2023-05-23T07:19:12;7;6;
54869;PMS5003;40756;-37.950;145.008;2023-05-23T07:21:42;6;5;
54869;PMS5003;40756;-37.950;145.008;2023-05-23T07:24:11;4;4;
54869;PMS5003;40756;-37.950;145.008;2023-05-23T07:26:41;5;4;
54869;PMS5003;40756;-37.950;145.008;2023-05-23T07:29:11;4;4;
54869;PMS5003;40756;-37.950;145.008;2023-05-23T07:31:40;4;3;
54869;PMS5003;40756;-37.950;145.008;2023-05-23T07:34:10;3;3;
54869;PMS5003;40756;-37.950;145.008;2023-05-23T07:36:40;5;4;
54869;PMS5003;40756;-37.950;145.008;2023-05-23T07:39:09;5;4;
54869;PMS5003;40756;-37.950;145.008;2023-05-23T07:41:39;4;4;
54869;PMS5003;40756;-37.950;145.008;2023-05-23T07:44:08;4;4;
54869;PMS5003;40756;-37.950;145.008;2023-05-23T07:46:38;3;3;
54869;PMS5003;40756;-37.950;145.008;2023-05-23T07:49:08;4;3;
54869;PMS5003;40756;-37.950;145.008;2023-05-23T07:51:37;6;6;
54869;PMS5003;40756;-37.950;145.008;2023-05-23T07:54:07;3;3;
54869;PMS5003;40756;-37.950;145.008;2023-05-23T07:56:37;3;3;
54869;PMS5003;40756;-37.950;145.008;2023-05-23T07:59:06;2;2;
54869;PMS5003;40756;-37.950;145.008;2023-05-23T08:01:36;3;3;
54869;PMS5003;40756;-37.950;145.008;2023-05-23T08:04:06;5;5;
54869;PMS5003;40756;-37.950;145.008;2023-05-23T08:06:35;3;3;
54869;PMS5003;40756;-37.950;145.008;2023-05-23T08:09:05;5;5;
54869;PMS5003;40756;-37.950;145.008;2023-05-23T08:11:34;4;4;
54869;PMS5003;40756;-37.950;145.008;2023-05-23T08:14:04;5;4;
54869;PMS5003;40756;-37.950;145.008;2023-05-23T08:16:34;5;4;
54869;PMS5003;40756;-37.950;145.008;2023-05-23T08:19:03;5;4;
54869;PMS5003;40756;-37.950;145.008;2023-05-23T08:21:34;4;4;
54869;PMS5003;40756;-37.950;145.008;2023-05-23T08:24:04;5;4;
54869;PMS5003;40756;-37.950;145.008;2023-05-23T08:26:33;8;8;
54869;PMS5003;40756;-37.950;145.008;2023-05-23T08:29:04;4;4;
54869;PMS5003;40756;-37.950;145.008;2023-05-23T08:31:34;6;6;
54869;PMS5003;40756;-37.950;145.008;2023-05-23T08:34:04;6;6;
54869;PMS5003;40756;-37.950;145.008;2023-05-23T08:36:34;6;6;
54869;PMS5003;40756;-37.950;145.008;2023-05-23T08:39:03;5;5;
54869;PMS5003;40756;-37.950;145.008;2023-05-23T08:41:33;8;6;
54869;PMS5003;40756;-37.950;145.008;2023-05-23T08:44:03;5;5;
54869;PMS5003;40756;-37.950;145.008;2023-05-23T08:46:33;4;2;
54869;PMS5003;40756;-37.950;145.008;2023-05-23T08:49:12;4;3;
54869;PMS5003;40756;-37.950;145.008;2023-05-23T08:51:44;5;3;
54869;PMS5003;40756;-37.950;145.008;2023-05-23T08:54:14;3;3;
54869;PMS5003;40756;-37.950;145.008;2023-05-23T08:56:43;3;3;
54869;PMS5003;40756;-37.950;145.008;2023-05-23T08:59:13;4;3;
54869;PMS5003;40756;-37.950;145.008;2023-05-23T09:01:43;5;4;
54869;PMS5003;40756;-37.950;145.008;2023-05-23T09:04:14;11;10;
54869;PMS5003;40756;-37.950;145.008;2023-05-23T09:06:43;5;5;
54869;PMS5003;40756;-37.950;145.008;2023-05-23T09:09:13;5;4;
54869;PMS5003;40756;-37.950;145.008;2023-05-23T09:11:43;4;3;
54869;PMS5003;40756;-37.950;145.008;2023-05-23T09:14:13;4;4;
54869;PMS5003;40756;-37.950;145.008;2023-05-23T09:16:45;5;3;
54869;PMS5003;40756;-37.950;145.008;2023-05-23T09:19:15;3;3;
54869;PMS5003;40756;-37.950;145.008;2023-05-23T09:21:46;8;6;
54869;PMS5003;40756;-37.950;145.008;2023-05-23T09:24:16;9;9;
54869;PMS5003;40756;-37.950;145.008;2023-05-23T09:26:46;9;8;
54869;PMS5003;40756;-37.950;145.008;2023-05-23T09:29:19;11;11;
54869;PMS5003;40756;-37.950;145.008;2023-05-23T09:31:49;12;12;
54869;PMS5003;40756;-37.950;145.008;2023-05-23T09:34:18;13;13;
54869;PMS5003;40756;-37.950;145.008;2023-05-23T09:36:47;21;21;
54869;PMS5003;40756;-37.950;145.008;2023-05-23T09:39:17;12;11;
54869;PMS5003;40756;-37.950;145.008;2023-05-23T09:41:47;26;25;
54869;PMS5003;40756;-37.950;145.008;2023-05-23T09:44:21;20;19;
54869;PMS5003;40756;-37.950;145.008;2023-05-23T09:46:51;34;33;
54869;PMS5003;40756;-37.950;145.008;2023-05-23T09:49:20;49;47;
54869;PMS5003;40756;-37.950;145.008;2023-05-23T09:51:57;54;54;
54869;PMS5003;40756;-37.950;145.008;2023-05-23T09:54:27;52;52;
54869;PMS5003;40756;-37.950;145.008;2023-05-23T09:56:57;10;10;
54869;PMS5003;40756;-37.950;145.008;2023-05-23T09:59:28;62;62;
54869;PMS5003;40756;-37.950;145.008;2023-05-23T10:02:01;13;13;
54869;PMS5003;40756;-37.950;145.008;2023-05-23T10:04:33;7;7;
54869;PMS5003;40756;-37.950;145.008;2023-05-23T10:07:09;9;7;
54869;PMS5003;40756;-37.950;145.008;2023-05-23T10:09:46;6;6;
54869;PMS5003;40756;-37.950;145.008;2023-05-23T10:12:39;6;5;
54869;PMS5003;40756;-37.950;145.008;2023-05-23T10:15:14;9;9;
54869;PMS5003;40756;-37.950;145.008;2023-05-23T10:17:51;5;5;
54869;PMS5003;40756;-37.950;145.008;2023-05-23T10:20:29;34;33;
54869;PMS5003;40756;-37.950;145.008;2023-05-23T10:23:00;20;17;
54869;PMS5003;40756;-37.950;145.008;2023-05-23T10:25:29;15;15;
54869;PMS5003;40756;-37.950;145.008;2023-05-23T10:27:59;30;29;
54869;PMS5003;40756;-37.950;145.008;2023-05-23T10:30:30;27;26;
54869;PMS5003;40756;-37.950;145.008;2023-05-23T10:33:01;59;56;
54869;PMS5003;40756;-37.950;145.008;2023-05-23T10:35:37;32;30;
54869;PMS5003;40756;-37.950;145.008;2023-05-23T10:38:24;18;18;
54869;PMS5003;40756;-37.950;145.008;2023-05-23T10:41:01;31;30;
54869;PMS5003;40756;-37.950;145.008;2023-05-23T10:43:42;32;31;
54869;PMS5003;40756;-37.950;145.008;2023-05-23T10:46:15;24;24;
54869;PMS5003;40756;-37.950;145.008;2023-05-23T10:48:46;34;33;
54869;PMS5003;40756;-37.950;145.008;2023-05-23T10:51:20;41;40;
54869;PMS5003;40756;-37.950;145.008;2023-05-23T10:53:53;51;51;
54869;PMS5003;40756;-37.950;145.008;2023-05-23T10:56:22;48;47;
54869;PMS5003;40756;-37.950;145.008;2023-05-23T10:58:52;48;47;
54869;PMS5003;40756;-37.950;145.008;2023-05-23T11:01:23;62;60;
54869;PMS5003;40756;-37.950;145.008;2023-05-23T11:03:53;55;52;
54869;PMS5003;40756;-37.950;145.008;2023-05-23T11:06:28;68;67;
54869;PMS5003;40756;-37.950;145.008;2023-05-23T11:09:04;100;100;
54869;PMS5003;40756;-37.950;145.008;2023-05-23T11:11:53;114;114;
54869;PMS5003;40756;-37.950;145.008;2023-05-23T11:14:50;82;81;
54869;PMS5003;40756;-37.950;145.008;2023-05-23T11:17:30;18;18;
54869;PMS5003;40756;-37.950;145.008;2023-05-23T11:20:02;9;9;
54869;PMS5003;40756;-37.950;145.008;2023-05-23T11:22:32;11;10;
54869;PMS5003;40756;-37.950;145.008;2023-05-23T11:25:06;14;12;
54869;PMS5003;40756;-37.950;145.008;2023-05-23T11:27:37;13;11;
54869;PMS5003;40756;-37.950;145.008;2023-05-23T11:30:08;12;11;
54869;PMS5003;40756;-37.950;145.008;2023-05-23T11:32:39;9;9;
54869;PMS5003;40756;-37.950;145.008;2023-05-23T11:35:10;12;12;
54869;PMS5003;40756;-37.950;145.008;2023-05-23T11:37:39;13;12;
54869;PMS5003;40756;-37.950;145.008;2023-05-23T11:40:26;19;16;
54869;PMS5003;40756;-37.950;145.008;2023-05-23T11:42:57;21;20;
54869;PMS5003;40756;-37.950;145.008;2023-05-23T11:45:28;20;19;
54869;PMS5003;40756;-37.950;145.008;2023-05-23T11:47:58;16;16;
54869;PMS5003;40756;-37.950;145.008;2023-05-23T11:50:32;19;16;
54869;PMS5003;40756;-37.950;145.008;2023-05-23T11:53:09;21;18;
54869;PMS5003;40756;-37.950;145.008;2023-05-23T11:55:39;20;17;
54869;PMS5003;40756;-37.950;145.008;2023-05-23T11:58:14;20;19;
54869;PMS5003;40756;-37.950;145.008;2023-05-23T12:00:44;17;17;
54869;PMS5003;40756;-37.950;145.008;2023-05-23T12:03:14;18;16;
54869;PMS5003;40756;-37.950;145.008;2023-05-23T12:05:43;17;16;
54869;PMS5003;40756;-37.950;145.008;2023-05-23T12:08:13;15;14;
54869;PMS5003;40756;-37.950;145.008;2023-05-23T12:10:49;12;12;
54869;PMS5003;40756;-37.950;145.008;2023-05-23T12:13:23;16;14;
54869;PMS5003;40756;-37.950;145.008;2023-05-23T12:15:54;14;13;
54869;PMS5003;40756;-37.950;145.008;2023-05-23T12:18:26;16;14;
54869;PMS5003;40756;-37.950;145.008;2023-05-23T12:20:59;12;10;
54869;PMS5003;40756;-37.950;145.008;2023-05-23T12:23:28;11;11;
54869;PMS5003;40756;-37.950;145.008;2023-05-23T12:25:58;12;9;
54869;PMS5003;40756;-37.950;145.008;2023-05-23T12:28:34;12;11;
54869;PMS5003;40756;-37.950;145.008;2023-05-23T12:31:09;13;13;
54869;PMS5003;40756;-37.950;145.008;2023-05-23T12:33:41;13;11;
54869;PMS5003;40756;-37.950;145.008;2023-05-23T12:36:12;14;13;
54869;PMS5003;40756;-37.950;145.008;2023-05-23T12:38:47;14;11;
54869;PMS5003;40756;-37.950;145.008;2023-05-23T12:41:18;11;10;
54869;PMS5003;40756;-37.950;145.008;2023-05-23T12:43:49;11;11;
54869;PMS5003;40756;-37.950;145.008;2023-05-23T12:46:20;12;12;
54869;PMS5003;40756;-37.950;145.008;2023-05-23T12:48:50;12;12;
54869;PMS5003;40756;-37.950;145.008;2023-05-23T12:51:20;12;12;
54869;PMS5003;40756;-37.950;145.008;2023-05-23T12:53:50;11;10;
54869;PMS5003;40756;-37.950;145.008;2023-05-23T12:56:20;10;9;
54869;PMS5003;40756;-37.950;145.008;2023-05-23T12:58:50;16;14;
54869;PMS5003;40756;-37.950;145.008;2023-05-23T13:01:19;10;10;
54869;PMS5003;40756;-37.950;145.008;2023-05-23T13:03:49;13;12;
54869;PMS5003;40756;-37.950;145.008;2023-05-23T13:06:19;12;9;
54869;PMS5003;40756;-37.950;145.008;2023-05-23T13:08:48;12;11;
54869;PMS5003;40756;-37.950;145.008;2023-05-23T13:11:18;11;10;
54869;PMS5003;40756;-37.950;145.008;2023-05-23T13:13:48;16;12;
54869;PMS5003;40756;-37.950;145.008;2023-05-23T13:16:18;17;14;
54869;PMS5003;40756;-37.950;145.008;2023-05-23T13:18:48;16;13;
54869;PMS5003;40756;-37.950;145.008;2023-05-23T13:21:17;13;10;
54869;PMS5003;40756;-37.950;145.008;2023-05-23T13:23:52;10;10;
54869;PMS5003;40756;-37.950;145.008;2023-05-23T13:26:22;12;10;
54869;PMS5003;40756;-37.950;145.008;2023-05-23T13:28:51;9;8;
54869;PMS5003;40756;-37.950;145.008;2023-05-23T13:31:21;14;11;
54869;PMS5003;40756;-37.950;145.008;2023-05-23T13:33:54;10;9;
54869;PMS5003;40756;-37.950;145.008;2023-05-23T13:36:24;12;10;
54869;PMS5003;40756;-37.950;145.008;2023-05-23T13:38:54;12;11;
54869;PMS5003;40756;-37.950;145.008;2023-05-23T13:41:23;14;12;
54869;PMS5003;40756;-37.950;145.008;2023-05-23T13:43:53;10;10;
54869;PMS5003;40756;-37.950;145.008;2023-05-23T13:46:23;9;9;
54869;PMS5003;40756;-37.950;145.008;2023-05-23T13:48:53;8;8;
54869;PMS5003;40756;-37.950;145.008;2023-05-23T13:51:22;12;10;
54869;PMS5003;40756;-37.950;145.008;2023-05-23T13:53:52;10;9;
54869;PMS5003;40756;-37.950;145.008;2023-05-23T13:56:22;10;10;
54869;PMS5003;40756;-37.950;145.008;2023-05-23T13:58:52;13;12;
54869;PMS5003;40756;-37.950;145.008;2023-05-23T14:01:21;10;10;
54869;PMS5003;40756;-37.950;145.008;2023-05-23T14:03:51;13;13;
54869;PMS5003;40756;-37.950;145.008;2023-05-23T14:06:20;11;10;
54869;PMS5003;40756;-37.950;145.008;2023-05-23T14:08:50;10;9;
54869;PMS5003;40756;-37.950;145.008;2023-05-23T14:11:20;24;24;
54869;PMS5003;40756;-37.950;145.008;2023-05-23T14:13:49;22;20;
54869;PMS5003;40756;-37.950;145.008;2023-05-23T14:16:19;29;27;
54869;PMS5003;40756;-37.950;145.008;2023-05-23T14:18:48;20;18;
54869;PMS5003;40756;-37.950;145.008;2023-05-23T14:21:18;14;13;
54869;PMS5003;40756;-37.950;145.008;2023-05-23T14:23:48;10;8;
54869;PMS5003;40756;-37.950;145.008;2023-05-23T14:26:18;7;6;
54869;PMS5003;40756;-37.950;145.008;2023-05-23T14:28:47;7;7;
54869;PMS5003;40756;-37.950;145.008;2023-05-23T14:31:17;9;8;
54869;PMS5003;40756;-37.950;145.008;2023-05-23T14:33:47;10;8;
54869;PMS5003;40756;-37.950;145.008;2023-05-23T14:36:17;7;7;
54869;PMS5003;40756;-37.950;145.008;2023-05-23T14:38:48;8;8;
54869;PMS5003;40756;-37.950;145.008;2023-05-23T14:41:17;7;7;
54869;PMS5003;40756;-37.950;145.008;2023-05-23T14:43:47;6;6;
54869;PMS5003;40756;-37.950;145.008;2023-05-23T14:46:16;8;7;
54869;PMS5003;40756;-37.950;145.008;2023-05-23T14:48:46;7;7;
54869;PMS5003;40756;-37.950;145.008;2023-05-23T14:51:16;7;7;
54869;PMS5003;40756;-37.950;145.008;2023-05-23T14:53:46;8;8;
54869;PMS5003;40756;-37.950;145.008;2023-05-23T14:56:16;6;6;
54869;PMS5003;40756;-37.950;145.008;2023-05-23T14:58:45;8;8;
54869;PMS5003;40756;-37.950;145.008;2023-05-23T15:01:15;5;5;
54869;PMS5003;40756;-37.950;145.008;2023-05-23T15:03:45;7;7;
54869;PMS5003;40756;-37.950;145.008;2023-05-23T15:06:14;10;10;
54869;PMS5003;40756;-37.950;145.008;2023-05-23T15:08:44;8;7;
54869;PMS5003;40756;-37.950;145.008;2023-05-23T15:11:14;7;6;
54869;PMS5003;40756;-37.950;145.008;2023-05-23T15:13:43;7;7;
54869;PMS5003;40756;-37.950;145.008;2023-05-23T15:16:13;6;5;
54869;PMS5003;40756;-37.950;145.008;2023-05-23T15:18:43;4;4;
54869;PMS5003;40756;-37.950;145.008;2023-05-23T15:21:13;8;7;
54869;PMS5003;40756;-37.950;145.008;2023-05-23T15:23:43;6;5;
54869;PMS5003;40756;-37.950;145.008;2023-05-23T15:26:12;5;5;
54869;PMS5003;40756;-37.950;145.008;2023-05-23T15:28:42;8;7;
54869;PMS5003;40756;-37.950;145.008;2023-05-23T15:31:12;5;5;
54869;PMS5003;40756;-37.950;145.008;2023-05-23T15:33:42;5;5;
54869;PMS5003;40756;-37.950;145.008;2023-05-23T15:36:11;5;5;
54869;PMS5003;40756;-37.950;145.008;2023-05-23T15:38:42;7;6;
54869;PMS5003;40756;-37.950;145.008;2023-05-23T15:41:12;6;6;
54869;PMS5003;40756;-37.950;145.008;2023-05-23T15:43:42;5;5;
54869;PMS5003;40756;-37.950;145.008;2023-05-23T15:46:12;6;5;
54869;PMS5003;40756;-37.950;145.008;2023-05-23T15:48:42;7;6;
54869;PMS5003;40756;-37.950;145.008;2023-05-23T15:51:12;6;5;
54869;PMS5003;40756;-37.950;145.008;2023-05-23T15:53:42;3;3;
54869;PMS5003;40756;-37.950;145.008;2023-05-23T15:56:11;7;5;
54869;PMS5003;40756;-37.950;145.008;2023-05-23T15:58:41;8;7;
54869;PMS5003;40756;-37.950;145.008;2023-05-23T16:01:11;5;5;
54869;PMS5003;40756;-37.950;145.008;2023-05-23T16:03:41;6;5;
54869;PMS5003;40756;-37.950;145.008;2023-05-23T16:06:10;4;4;
54869;PMS5003;40756;-37.950;145.008;2023-05-23T16:08:40;4;3;
54869;PMS5003;40756;-37.950;145.008;2023-05-23T16:11:10;6;5;
54869;PMS5003;40756;-37.950;145.008;2023-05-23T16:13:40;5;5;